Address 0x8b2576a18af69290abf8af28bdc4886431e810b2

 
Ad
Ad
Txn Hash Method
Block
From
To
Value [Txn Fee]
0xeaeedda15ca6930fe60d47beaba06319b68f855e97a79379dc29e02430246cbaExecute Meta Tra...204801582021-10-22 7:42:045 mins ago0x8b2576a18af69290abf8af28bdc4886431e810b2OUT 0xa5f1ea7df861952863df2e8d1312f7305dabf2150 MATIC0.00457479
0x8e3fc41e342b29399212efdf6f232f88a848ac4d9ec66f7d049cb0d1019287dcExecute Meta Tra...204797162021-10-22 7:24:4422 mins ago0x8b2576a18af69290abf8af28bdc4886431e810b2OUT 0x89aac1f5ccdd54dd8a09e5c858f19a665e4fa32b0 MATIC0.00642465
0xa42c2d9915240adf38912739feb27fd05de4ed3c7a7d23b589484442a1fb149bExecute Meta Tra...204792862021-10-22 7:05:4041 mins ago0x8b2576a18af69290abf8af28bdc4886431e810b2OUT 0x89aac1f5ccdd54dd8a09e5c858f19a665e4fa32b0 MATIC0.007067115
0x6b157e0761bfee5d1c6f9e70b2d0334e8ded832c1f96426085b2913fd2bd9444Execute Meta Tra...204788562021-10-22 6:48:4858 mins ago0x8b2576a18af69290abf8af28bdc4886431e810b2OUT 0x1fdc5e69729eecf8e933c904e86faf7a8886f6610 MATIC0.00966855
0x137319e2aea824c652698935e8a8d6020b8dd57858b549abc4c78275bdbbcd8fTransfer204783552021-10-22 6:28:591 hr 18 mins ago0x9e1980070743cb86bdbe3ae1d01018c6e97b0932 IN 0x8b2576a18af69290abf8af28bdc4886431e810b27 MATIC0.000945
0x5a14d6353ba9744e8b03e30d27f98eac501e814845f7d927823ab8cfe51124fbExecute Meta Tra...204783512021-10-22 6:28:511 hr 18 mins ago0x8b2576a18af69290abf8af28bdc4886431e810b2OUT 0xeda1f66f5c765ac16b4333c53f3f83f781d01c8b0 MATIC0.041949225
0x5a57bce79f3f3a054190c6fde17a803edb82e4141c55ee7017d06e8180a39bdaExecute Meta Tra...204775162021-10-22 5:54:111 hr 52 mins ago0x8b2576a18af69290abf8af28bdc4886431e810b2OUT 0x89aac1f5ccdd54dd8a09e5c858f19a665e4fa32b0 MATIC0.00642537
0x1580f5616e46994df8128b4ca6eaf60b4b240a7f209c1fc9abe05acd9d3102190x41706c4e204769102021-10-22 5:32:192 hrs 14 mins ago0x8b2576a18af69290abf8af28bdc4886431e810b2OUT 0x86c80a8aa58e0a4fa09a69624c31ab2a6cad56b80 MATIC0.002608032
0xc8f9dae98aeef0d6a7583b322a03f20e59b3f5c6bcf7efd0f7a50f21ed40dd20Execute Meta Tra...204763922021-10-22 5:12:112 hrs 34 mins ago0x8b2576a18af69290abf8af28bdc4886431e810b2OUT 0x89aac1f5ccdd54dd8a09e5c858f19a665e4fa32b0 MATIC0.00644856837
0x0d3939d023cd8db6aee6b444e3cacbc2693aa85683fab6d4d2e110671ad947b9Execute Meta Tra...204760602021-10-22 4:57:172 hrs 49 mins ago0x8b2576a18af69290abf8af28bdc4886431e810b2OUT 0x89aac1f5ccdd54dd8a09e5c858f19a665e4fa32b0 MATIC0.00642501
0x129e1631cc023f2d921855d681e176ef7a4ab4a643685a9ce14274750f085b43Execute Meta Tra...204756572021-10-22 4:41:193 hrs 5 mins ago0x8b2576a18af69290abf8af28bdc4886431e810b2OUT 0x89aac1f5ccdd54dd8a09e5c858f19a665e4fa32b0 MATIC0.00642537
0xb64c7fa18b6e2ecb593c73127db58301b8ab0370ec79da9cd62a638e94fc0d9dExecute Meta Tra...204752062021-10-22 4:23:553 hrs 23 mins ago0x8b2576a18af69290abf8af28bdc4886431e810b2OUT 0xa5f1ea7df861952863df2e8d1312f7305dabf2150 MATIC0.00334422
0x8991f120994bf4633034c817fa2c275758dbc0401adb0c07ac8656a3fae32d4bExecute Meta Tra...204748782021-10-22 4:10:113 hrs 36 mins ago0x8b2576a18af69290abf8af28bdc4886431e810b2OUT 0xa5f1ea7df861952863df2e8d1312f7305dabf2150 MATIC0.003440433784
0xb6aac4c2929ee694eee5fe8d1d8b992d19b83ba23ea9a8f36e3edccb5ecf6167Execute Meta Tra...204744822021-10-22 3:54:293 hrs 52 mins ago0x8b2576a18af69290abf8af28bdc4886431e810b2OUT 0x89aac1f5ccdd54dd8a09e5c858f19a665e4fa32b0 MATIC0.01070835
0x1f64a1545558bbf86ef54d2345abaaa9e29c04a85776df6c228bc085fb01602aExecute Meta Tra...204740522021-10-22 3:37:374 hrs 9 mins ago0x8b2576a18af69290abf8af28bdc4886431e810b2OUT 0x89aac1f5ccdd54dd8a09e5c858f19a665e4fa32b0 MATIC0.0081597627
0x07e645bfffed415c6c9629ae2a5013cb39c887776275c90ad1ddcbe65cf7e66fExecute Meta Tra...204737322021-10-22 3:26:374 hrs 20 mins ago0x8b2576a18af69290abf8af28bdc4886431e810b2OUT 0x89aac1f5ccdd54dd8a09e5c858f19a665e4fa32b0 MATIC0.00642501
0x617a21f45581f8a1480b3ae8b6002421a31c64951951480f69da59f6132fdf67Execute Meta Tra...204734012021-10-22 3:10:554 hrs 36 mins ago0x8b2576a18af69290abf8af28bdc4886431e810b2OUT 0x89aac1f5ccdd54dd8a09e5c858f19a665e4fa32b0 MATIC0.00642501
0x1e3e0a93bdf3e1fda6bfe727eb4f1bb41669d54295b079e4e338601ee3831255Execute Meta Tra...204730992021-10-22 2:58:514 hrs 48 mins ago0x8b2576a18af69290abf8af28bdc4886431e810b2OUT 0x89aac1f5ccdd54dd8a09e5c858f19a665e4fa32b0 MATIC0.007495845
0x0c8c0d1b448a3cedb735ebdc595afcaf5912b7f40291fc9346dde678456febfaExecute Meta Tra...204723742021-10-22 2:30:275 hrs 16 mins ago0x8b2576a18af69290abf8af28bdc4886431e810b2OUT 0x89aac1f5ccdd54dd8a09e5c858f19a665e4fa32b0 MATIC0.007282086
0x9af127d43088e9d55bd2f18ed3fa33892a6a6bcade90e5035b749fa2b9a2a726Execute Meta Tra...204721822021-10-22 2:18:215 hrs 28 mins ago0x8b2576a18af69290abf8af28bdc4886431e810b2OUT 0x89aac1f5ccdd54dd8a09e5c858f19a665e4fa32b0 MATIC0.004133565
0x73592d7c21633371b29aafdc4e8d9119f2d9fa18d47faed1bc0c981f2effc71fExecute Meta Tra...204718132021-10-22 2:03:355 hrs 43 mins ago0x8b2576a18af69290abf8af28bdc4886431e810b2OUT 0x89aac1f5ccdd54dd8a09e5c858f19a665e4fa32b0 MATIC0.00642501
0x9de1ce04a90dda9b983d27b0693736dc85450e006a8e7c8965f77f6d407b25c0Execute Meta Tra...204714632021-10-22 1:51:315 hrs 55 mins ago0x8b2576a18af69290abf8af28bdc4886431e810b2OUT 0x89aac1f5ccdd54dd8a09e5c858f19a665e4fa32b0 MATIC0.00642501
0x7aedd50f6abeca9cc56b4962f374fab99ff20d6ae7cb52b1099a50e655e0e599Execute Meta Tra...204709152021-10-22 1:28:276 hrs 18 mins ago0x8b2576a18af69290abf8af28bdc4886431e810b2OUT 0x89aac1f5ccdd54dd8a09e5c858f19a665e4fa32b0 MATIC0.01070835
0xa7417fac5141b4f2c38c11695992430aa6fe6ef8d7beeae4b70a36facecba6efExecute Meta Tra...204706322021-10-22 1:18:416 hrs 28 mins ago0x8b2576a18af69290abf8af28bdc4886431e810b2OUT 0x89aac1f5ccdd54dd8a09e5c858f19a665e4fa32b0 MATIC0.01927503
0x6ae98bcd4d7dbacf4ef5c8bf437c7a4e645744d458c2599d149d4dfdc257272fExecute Meta Tra...204699472021-10-22 0:50:436 hrs 56 mins ago0x8b2576a18af69290abf8af28bdc4886431e810b2OUT 0x89aac1f5ccdd54dd8a09e5c858f19a665e4fa32b0 MATIC0.0428334
[ Download CSV Export 
Parent Txn Hash Block From To Value
Loading

Contract Name:
0 MATIC

Compiler Version
0

Optimization Enabled:
0 MATIC

Other Settings:
-NA-
Block Transaction Gas Used Reward
Age Block Fee Address BC Fee Address Voting Power Jailed Incoming
Block Uncle Number Difficulty Gas Used Reward
Loading
Loading
Make sure to use the "Vote Down" button for any spammy posts, and the "Vote Up" for interesting conversations.